sensor_id;sensor_type;location;lat;lon;timestamp;P1;durP1;ratioP1;P2;durP2;ratioP2
9821;SDS011;4950;46.042;14.472;2024-03-02T00:00:39;31.63;;;21.00;;
9821;SDS011;4950;46.042;14.472;2024-03-02T00:03:06;32.15;;;23.08;;
9821;SDS011;4950;46.042;14.472;2024-03-02T00:05:34;31.55;;;23.13;;
9821;SDS011;4950;46.042;14.472;2024-03-02T00:08:01;34.20;;;25.05;;
9821;SDS011;4950;46.042;14.472;2024-03-02T00:13:02;32.20;;;23.00;;
9821;SDS011;4950;46.042;14.472;2024-03-02T00:15:34;32.33;;;24.30;;
9821;SDS011;4950;46.042;14.472;2024-03-02T00:20:37;38.35;;;26.30;;
9821;SDS011;4950;46.042;14.472;2024-03-02T00:23:05;36.17;;;24.98;;
9821;SDS011;4950;46.042;14.472;2024-03-02T00:25:39;33.50;;;23.60;;
9821;SDS011;4950;46.042;14.472;2024-03-02T00:28:11;36.67;;;25.05;;
9821;SDS011;4950;46.042;14.472;2024-03-02T00:30:52;54.95;;;29.42;;
9821;SDS011;4950;46.042;14.472;2024-03-02T00:33:22;47.22;;;29.40;;
9821;SDS011;4950;46.042;14.472;2024-03-02T00:35:50;41.80;;;26.50;;
9821;SDS011;4950;46.042;14.472;2024-03-02T00:38:17;37.67;;;24.88;;
9821;SDS011;4950;46.042;14.472;2024-03-02T00:40:44;34.10;;;21.48;;
9821;SDS011;4950;46.042;14.472;2024-03-02T00:46:06;30.15;;;19.80;;
9821;SDS011;4950;46.042;14.472;2024-03-02T00:48:33;25.08;;;18.15;;
9821;SDS011;4950;46.042;14.472;2024-03-02T00:51:01;25.90;;;18.20;;
9821;SDS011;4950;46.042;14.472;2024-03-02T00:53:29;27.25;;;18.67;;
9821;SDS011;4950;46.042;14.472;2024-03-02T00:55:58;25.83;;;17.38;;
9821;SDS011;4950;46.042;14.472;2024-03-02T00:58:24;24.70;;;16.40;;
9821;SDS011;4950;46.042;14.472;2024-03-02T01:00:51;29.02;;;19.77;;
9821;SDS011;4950;46.042;14.472;2024-03-02T01:03:19;32.20;;;19.58;;
9821;SDS011;4950;46.042;14.472;2024-03-02T01:05:46;28.55;;;20.38;;
9821;SDS011;4950;46.042;14.472;2024-03-02T01:08:13;27.60;;;19.42;;
9821;SDS011;4950;46.042;14.472;2024-03-02T01:10:39;36.25;;;21.00;;
9821;SDS011;4950;46.042;14.472;2024-03-02T01:13:06;34.08;;;21.70;;
9821;SDS011;4950;46.042;14.472;2024-03-02T01:15:33;30.98;;;21.42;;
9821;SDS011;4950;46.042;14.472;2024-03-02T01:18:00;27.15;;;19.02;;
9821;SDS011;4950;46.042;14.472;2024-03-02T01:20:28;32.00;;;19.67;;
9821;SDS011;4950;46.042;14.472;2024-03-02T01:22:55;29.60;;;20.08;;
9821;SDS011;4950;46.042;14.472;2024-03-02T01:25:21;31.45;;;20.67;;
9821;SDS011;4950;46.042;14.472;2024-03-02T01:27:48;33.58;;;21.13;;
9821;SDS011;4950;46.042;14.472;2024-03-02T01:30:15;38.45;;;20.98;;
9821;SDS011;4950;46.042;14.472;2024-03-02T01:32:42;38.22;;;24.52;;
9821;SDS011;4950;46.042;14.472;2024-03-02T01:35:09;38.08;;;23.02;;
9821;SDS011;4950;46.042;14.472;2024-03-02T01:37:37;41.38;;;25.77;;
9821;SDS011;4950;46.042;14.472;2024-03-02T01:40:04;51.45;;;25.75;;
9821;SDS011;4950;46.042;14.472;2024-03-02T01:42:34;47.28;;;28.42;;
9821;SDS011;4950;46.042;14.472;2024-03-02T01:45:02;40.55;;;24.75;;
9821;SDS011;4950;46.042;14.472;2024-03-02T01:47:29;46.03;;;28.60;;
9821;SDS011;4950;46.042;14.472;2024-03-02T01:49:56;53.42;;;30.30;;
9821;SDS011;4950;46.042;14.472;2024-03-02T01:52:23;54.70;;;31.10;;
9821;SDS011;4950;46.042;14.472;2024-03-02T01:54:51;45.55;;;27.15;;
9821;SDS011;4950;46.042;14.472;2024-03-02T01:57:18;40.42;;;25.25;;
9821;SDS011;4950;46.042;14.472;2024-03-02T01:59:45;42.30;;;25.48;;
9821;SDS011;4950;46.042;14.472;2024-03-02T02:02:13;43.92;;;28.13;;
9821;SDS011;4950;46.042;14.472;2024-03-02T02:04:40;44.50;;;26.58;;
9821;SDS011;4950;46.042;14.472;2024-03-02T02:07:07;40.25;;;24.63;;
9821;SDS011;4950;46.042;14.472;2024-03-02T02:09:33;41.80;;;25.23;;
9821;SDS011;4950;46.042;14.472;2024-03-02T02:12:01;42.22;;;26.38;;
9821;SDS011;4950;46.042;14.472;2024-03-02T02:14:31;40.95;;;25.58;;
9821;SDS011;4950;46.042;14.472;2024-03-02T02:16:58;41.97;;;27.40;;
9821;SDS011;4950;46.042;14.472;2024-03-02T02:19:24;41.30;;;25.75;;
9821;SDS011;4950;46.042;14.472;2024-03-02T02:21:52;36.88;;;23.88;;
9821;SDS011;4950;46.042;14.472;2024-03-02T02:24:19;43.75;;;26.35;;
9821;SDS011;4950;46.042;14.472;2024-03-02T02:26:46;42.92;;;25.38;;
9821;SDS011;4950;46.042;14.472;2024-03-02T02:29:12;37.67;;;23.25;;
9821;SDS011;4950;46.042;14.472;2024-03-02T02:31:39;38.58;;;20.38;;
9821;SDS011;4950;46.042;14.472;2024-03-02T02:34:07;38.97;;;22.23;;
9821;SDS011;4950;46.042;14.472;2024-03-02T02:36:34;40.03;;;22.92;;
9821;SDS011;4950;46.042;14.472;2024-03-02T02:39:05;43.88;;;26.08;;
9821;SDS011;4950;46.042;14.472;2024-03-02T02:41:35;44.72;;;26.35;;
9821;SDS011;4950;46.042;14.472;2024-03-02T02:44:02;41.70;;;25.65;;
9821;SDS011;4950;46.042;14.472;2024-03-02T02:46:29;45.80;;;28.75;;
9821;SDS011;4950;46.042;14.472;2024-03-02T02:48:56;50.47;;;29.75;;
9821;SDS011;4950;46.042;14.472;2024-03-02T02:51:22;54.60;;;28.38;;
9821;SDS011;4950;46.042;14.472;2024-03-02T02:53:50;49.97;;;29.58;;
9821;SDS011;4950;46.042;14.472;2024-03-02T02:56:18;52.67;;;30.27;;
9821;SDS011;4950;46.042;14.472;2024-03-02T02:58:45;50.88;;;30.23;;
9821;SDS011;4950;46.042;14.472;2024-03-02T03:01:12;45.67;;;28.80;;
9821;SDS011;4950;46.042;14.472;2024-03-02T03:03:38;55.45;;;31.30;;
9821;SDS011;4950;46.042;14.472;2024-03-02T03:06:05;50.83;;;30.33;;
9821;SDS011;4950;46.042;14.472;2024-03-02T03:08:32;49.50;;;29.67;;
9821;SDS011;4950;46.042;14.472;2024-03-02T03:10:59;50.17;;;30.17;;
9821;SDS011;4950;46.042;14.472;2024-03-02T03:13:27;54.22;;;30.58;;
9821;SDS011;4950;46.042;14.472;2024-03-02T03:15:54;52.75;;;29.00;;
9821;SDS011;4950;46.042;14.472;2024-03-02T03:18:20;48.53;;;26.60;;
9821;SDS011;4950;46.042;14.472;2024-03-02T03:20:47;45.53;;;25.20;;
9821;SDS011;4950;46.042;14.472;2024-03-02T03:23:15;47.45;;;26.25;;
9821;SDS011;4950;46.042;14.472;2024-03-02T03:25:42;47.20;;;26.25;;
9821;SDS011;4950;46.042;14.472;2024-03-02T03:28:09;59.00;;;26.63;;
9821;SDS011;4950;46.042;14.472;2024-03-02T03:30:37;46.35;;;26.05;;
9821;SDS011;4950;46.042;14.472;2024-03-02T03:33:04;48.03;;;26.15;;
9821;SDS011;4950;46.042;14.472;2024-03-02T03:35:32;51.47;;;26.77;;
9821;SDS011;4950;46.042;14.472;2024-03-02T03:37:58;61.00;;;30.02;;
9821;SDS011;4950;46.042;14.472;2024-03-02T03:40:25;48.63;;;25.13;;
9821;SDS011;4950;46.042;14.472;2024-03-02T03:42:52;49.13;;;26.70;;
9821;SDS011;4950;46.042;14.472;2024-03-02T03:45:20;51.90;;;26.45;;
9821;SDS011;4950;46.042;14.472;2024-03-02T03:47:48;49.33;;;26.52;;
9821;SDS011;4950;46.042;14.472;2024-03-02T03:50:15;51.92;;;27.00;;
9821;SDS011;4950;46.042;14.472;2024-03-02T03:52:41;58.35;;;28.85;;
9821;SDS011;4950;46.042;14.472;2024-03-02T03:55:08;63.42;;;31.48;;
9821;SDS011;4950;46.042;14.472;2024-03-02T03:57:35;53.60;;;28.70;;
9821;SDS011;4950;46.042;14.472;2024-03-02T04:00:02;56.88;;;29.67;;
9821;SDS011;4950;46.042;14.472;2024-03-02T04:02:29;56.88;;;28.98;;
9821;SDS011;4950;46.042;14.472;2024-03-02T04:04:58;50.40;;;27.08;;
9821;SDS011;4950;46.042;14.472;2024-03-02T04:07:24;50.78;;;26.70;;
9821;SDS011;4950;46.042;14.472;2024-03-02T04:09:51;57.13;;;28.40;;
9821;SDS011;4950;46.042;14.472;2024-03-02T04:12:18;56.00;;;28.25;;
9821;SDS011;4950;46.042;14.472;2024-03-02T04:14:44;55.28;;;28.67;;
9821;SDS011;4950;46.042;14.472;2024-03-02T04:17:11;51.85;;;27.45;;
9821;SDS011;4950;46.042;14.472;2024-03-02T04:19:38;57.63;;;28.02;;
9821;SDS011;4950;46.042;14.472;2024-03-02T04:22:06;51.83;;;27.85;;
9821;SDS011;4950;46.042;14.472;2024-03-02T04:24:33;49.05;;;26.73;;
9821;SDS011;4950;46.042;14.472;2024-03-02T04:26:59;50.75;;;28.00;;
9821;SDS011;4950;46.042;14.472;2024-03-02T04:29:27;52.65;;;28.42;;
9821;SDS011;4950;46.042;14.472;2024-03-02T04:31:54;47.90;;;27.40;;
9821;SDS011;4950;46.042;14.472;2024-03-02T04:34:21;54.78;;;30.45;;
9821;SDS011;4950;46.042;14.472;2024-03-02T04:36:47;62.33;;;30.55;;
9821;SDS011;4950;46.042;14.472;2024-03-02T04:39:16;55.55;;;28.98;;
9821;SDS011;4950;46.042;14.472;2024-03-02T04:41:43;54.35;;;27.85;;
9821;SDS011;4950;46.042;14.472;2024-03-02T04:44:09;55.70;;;27.88;;
9821;SDS011;4950;46.042;14.472;2024-03-02T04:46:36;60.70;;;30.48;;
9821;SDS011;4950;46.042;14.472;2024-03-02T04:49:03;55.50;;;29.15;;
9821;SDS011;4950;46.042;14.472;2024-03-02T04:51:29;70.43;;;31.67;;
9821;SDS011;4950;46.042;14.472;2024-03-02T04:53:56;65.78;;;31.85;;
9821;SDS011;4950;46.042;14.472;2024-03-02T04:56:24;59.80;;;30.48;;
9821;SDS011;4950;46.042;14.472;2024-03-02T04:59:05;56.50;;;29.70;;
9821;SDS011;4950;46.042;14.472;2024-03-02T05:01:32;53.40;;;27.25;;
9821;SDS011;4950;46.042;14.472;2024-03-02T05:03:59;56.30;;;28.58;;
9821;SDS011;4950;46.042;14.472;2024-03-02T05:06:26;56.15;;;27.38;;
9821;SDS011;4950;46.042;14.472;2024-03-02T05:08:53;54.28;;;27.35;;
9821;SDS011;4950;46.042;14.472;2024-03-02T05:11:19;52.53;;;25.27;;
9821;SDS011;4950;46.042;14.472;2024-03-02T05:14:16;49.15;;;25.77;;
9821;SDS011;4950;46.042;14.472;2024-03-02T05:16:43;49.65;;;24.95;;
9821;SDS011;4950;46.042;14.472;2024-03-02T05:19:09;57.95;;;25.48;;
9821;SDS011;4950;46.042;14.472;2024-03-02T05:21:36;47.92;;;27.13;;
9821;SDS011;4950;46.042;14.472;2024-03-02T05:24:03;52.70;;;26.05;;
9821;SDS011;4950;46.042;14.472;2024-03-02T05:26:30;49.00;;;25.83;;
9821;SDS011;4950;46.042;14.472;2024-03-02T05:28:56;51.10;;;24.95;;
9821;SDS011;4950;46.042;14.472;2024-03-02T05:31:25;51.55;;;25.60;;
9821;SDS011;4950;46.042;14.472;2024-03-02T05:33:52;52.45;;;27.08;;
9821;SDS011;4950;46.042;14.472;2024-03-02T05:36:18;54.60;;;26.00;;
9821;SDS011;4950;46.042;14.472;2024-03-02T05:38:45;57.00;;;26.88;;
9821;SDS011;4950;46.042;14.472;2024-03-02T05:41:12;64.72;;;27.98;;
9821;SDS011;4950;46.042;14.472;2024-03-02T05:43:39;58.00;;;26.33;;
9821;SDS011;4950;46.042;14.472;2024-03-02T05:46:05;57.92;;;25.98;;
9821;SDS011;4950;46.042;14.472;2024-03-02T05:48:33;59.90;;;26.23;;
9821;SDS011;4950;46.042;14.472;2024-03-02T05:51:00;55.28;;;25.27;;
9821;SDS011;4950;46.042;14.472;2024-03-02T05:53:27;63.05;;;26.30;;
9821;SDS011;4950;46.042;14.472;2024-03-02T05:55:54;60.33;;;26.73;;
9821;SDS011;4950;46.042;14.472;2024-03-02T05:58:21;65.13;;;26.10;;
9821;SDS011;4950;46.042;14.472;2024-03-02T06:00:58;69.05;;;26.67;;
9821;SDS011;4950;46.042;14.472;2024-03-02T06:03:25;59.78;;;26.67;;
9821;SDS011;4950;46.042;14.472;2024-03-02T06:05:54;65.68;;;28.13;;
9821;SDS011;4950;46.042;14.472;2024-03-02T06:08:21;62.60;;;28.45;;
9821;SDS011;4950;46.042;14.472;2024-03-02T06:10:48;60.55;;;27.20;;
9821;SDS011;4950;46.042;14.472;2024-03-02T06:13:14;65.45;;;29.08;;
9821;SDS011;4950;46.042;14.472;2024-03-02T06:15:41;64.72;;;28.25;;
9821;SDS011;4950;46.042;14.472;2024-03-02T06:18:08;74.15;;;29.40;;
9821;SDS011;4950;46.042;14.472;2024-03-02T06:20:35;71.03;;;27.80;;
9821;SDS011;4950;46.042;14.472;2024-03-02T06:23:03;63.25;;;27.48;;
9821;SDS011;4950;46.042;14.472;2024-03-02T06:25:30;66.70;;;28.33;;
9821;SDS011;4950;46.042;14.472;2024-03-02T06:27:57;67.55;;;28.40;;
9821;SDS011;4950;46.042;14.472;2024-03-02T06:30:24;64.32;;;27.85;;
9821;SDS011;4950;46.042;14.472;2024-03-02T06:32:51;57.80;;;28.80;;
9821;SDS011;4950;46.042;14.472;2024-03-02T06:35:17;71.30;;;30.52;;
9821;SDS011;4950;46.042;14.472;2024-03-02T06:37:44;63.67;;;28.70;;
9821;SDS011;4950;46.042;14.472;2024-03-02T06:40:12;59.08;;;27.80;;
9821;SDS011;4950;46.042;14.472;2024-03-02T06:42:39;51.47;;;25.40;;
9821;SDS011;4950;46.042;14.472;2024-03-02T06:45:06;55.70;;;26.58;;
9821;SDS011;4950;46.042;14.472;2024-03-02T06:47:33;55.40;;;27.60;;
9821;SDS011;4950;46.042;14.472;2024-03-02T06:49:59;65.32;;;27.48;;
9821;SDS011;4950;46.042;14.472;2024-03-02T06:52:26;61.65;;;28.42;;
9821;SDS011;4950;46.042;14.472;2024-03-02T06:54:53;51.63;;;24.92;;
9821;SDS011;4950;46.042;14.472;2024-03-02T06:57:21;52.90;;;27.02;;
9821;SDS011;4950;46.042;14.472;2024-03-02T07:02:19;61.20;;;27.27;;
9821;SDS011;4950;46.042;14.472;2024-03-02T07:04:45;59.17;;;27.42;;
9821;SDS011;4950;46.042;14.472;2024-03-02T07:07:12;59.72;;;28.77;;
9821;SDS011;4950;46.042;14.472;2024-03-02T07:09:39;69.60;;;30.33;;
9821;SDS011;4950;46.042;14.472;2024-03-02T07:12:06;62.28;;;29.67;;
9821;SDS011;4950;46.042;14.472;2024-03-02T07:14:34;62.50;;;31.27;;
9821;SDS011;4950;46.042;14.472;2024-03-02T07:17:33;63.63;;;31.20;;
9821;SDS011;4950;46.042;14.472;2024-03-02T07:20:00;64.75;;;31.45;;
9821;SDS011;4950;46.042;14.472;2024-03-02T07:22:28;66.88;;;31.88;;
9821;SDS011;4950;46.042;14.472;2024-03-02T07:24:55;63.95;;;30.40;;
9821;SDS011;4950;46.042;14.472;2024-03-02T07:27:22;60.83;;;29.63;;
9821;SDS011;4950;46.042;14.472;2024-03-02T07:29:50;69.53;;;32.67;;
9821;SDS011;4950;46.042;14.472;2024-03-02T07:32:16;61.03;;;29.83;;
9821;SDS011;4950;46.042;14.472;2024-03-02T07:34:43;72.07;;;33.42;;
9821;SDS011;4950;46.042;14.472;2024-03-02T07:37:10;60.75;;;30.73;;
9821;SDS011;4950;46.042;14.472;2024-03-02T07:39:36;66.22;;;31.65;;
9821;SDS011;4950;46.042;14.472;2024-03-02T07:42:04;61.80;;;32.95;;
9821;SDS011;4950;46.042;14.472;2024-03-02T07:44:31;62.10;;;31.63;;
9821;SDS011;4950;46.042;14.472;2024-03-02T07:46:59;64.13;;;30.98;;
9821;SDS011;4950;46.042;14.472;2024-03-02T07:49:26;61.10;;;31.52;;
9821;SDS011;4950;46.042;14.472;2024-03-02T07:51:53;62.28;;;29.55;;
9821;SDS011;4950;46.042;14.472;2024-03-02T07:54:20;64.90;;;31.75;;
9821;SDS011;4950;46.042;14.472;2024-03-02T07:56:47;64.05;;;32.03;;
9821;SDS011;4950;46.042;14.472;2024-03-02T07:59:14;58.05;;;29.40;;
9821;SDS011;4950;46.042;14.472;2024-03-02T08:01:41;55.58;;;28.75;;
9821;SDS011;4950;46.042;14.472;2024-03-02T08:04:10;56.22;;;29.17;;
9821;SDS011;4950;46.042;14.472;2024-03-02T08:06:37;69.15;;;31.95;;
9821;SDS011;4950;46.042;14.472;2024-03-02T08:09:03;67.63;;;33.25;;
9821;SDS011;4950;46.042;14.472;2024-03-02T08:11:34;78.70;;;35.08;;
9821;SDS011;4950;46.042;14.472;2024-03-02T08:14:02;75.22;;;37.30;;
9821;SDS011;4950;46.042;14.472;2024-03-02T08:16:29;76.38;;;36.10;;
9821;SDS011;4950;46.042;14.472;2024-03-02T08:18:56;60.22;;;31.30;;
9821;SDS011;4950;46.042;14.472;2024-03-02T08:21:25;55.10;;;27.38;;
9821;SDS011;4950;46.042;14.472;2024-03-02T08:23:55;56.53;;;29.55;;
9821;SDS011;4950;46.042;14.472;2024-03-02T08:26:22;59.30;;;31.10;;
9821;SDS011;4950;46.042;14.472;2024-03-02T08:28:49;68.35;;;34.03;;
9821;SDS011;4950;46.042;14.472;2024-03-02T08:31:15;69.75;;;32.83;;
9821;SDS011;4950;46.042;14.472;2024-03-02T08:33:42;60.53;;;32.30;;
9821;SDS011;4950;46.042;14.472;2024-03-02T08:36:09;56.15;;;31.38;;
9821;SDS011;4950;46.042;14.472;2024-03-02T08:38:37;67.30;;;33.75;;
9821;SDS011;4950;46.042;14.472;2024-03-02T08:41:04;61.40;;;33.42;;
9821;SDS011;4950;46.042;14.472;2024-03-02T08:43:31;63.08;;;32.72;;
9821;SDS011;4950;46.042;14.472;2024-03-02T08:45:58;63.17;;;33.53;;
9821;SDS011;4950;46.042;14.472;2024-03-02T08:48:24;62.72;;;32.67;;
9821;SDS011;4950;46.042;14.472;2024-03-02T08:50:51;61.83;;;31.80;;
9821;SDS011;4950;46.042;14.472;2024-03-02T08:53:18;59.75;;;31.90;;
9821;SDS011;4950;46.042;14.472;2024-03-02T08:55:46;54.72;;;29.70;;
9821;SDS011;4950;46.042;14.472;2024-03-02T08:58:13;53.65;;;29.20;;
9821;SDS011;4950;46.042;14.472;2024-03-02T09:00:40;57.03;;;29.65;;
9821;SDS011;4950;46.042;14.472;2024-03-02T09:03:07;55.88;;;31.48;;
9821;SDS011;4950;46.042;14.472;2024-03-02T09:05:34;51.20;;;29.10;;
9821;SDS011;4950;46.042;14.472;2024-03-02T09:08:03;57.20;;;29.02;;
9821;SDS011;4950;46.042;14.472;2024-03-02T09:10:30;51.63;;;28.75;;
9821;SDS011;4950;46.042;14.472;2024-03-02T09:12:58;51.63;;;28.67;;
9821;SDS011;4950;46.042;14.472;2024-03-02T09:15:25;53.92;;;29.00;;
9821;SDS011;4950;46.042;14.472;2024-03-02T09:17:52;54.75;;;29.27;;
9821;SDS011;4950;46.042;14.472;2024-03-02T09:20:18;48.95;;;28.38;;
9821;SDS011;4950;46.042;14.472;2024-03-02T09:22:45;48.63;;;25.98;;
9821;SDS011;4950;46.042;14.472;2024-03-02T09:25:13;46.80;;;25.67;;
9821;SDS011;4950;46.042;14.472;2024-03-02T09:27:41;49.65;;;27.17;;
9821;SDS011;4950;46.042;14.472;2024-03-02T09:30:09;46.53;;;25.60;;
9821;SDS011;4950;46.042;14.472;2024-03-02T09:32:36;44.13;;;25.27;;
9821;SDS011;4950;46.042;14.472;2024-03-02T09:35:04;46.75;;;26.40;;
9821;SDS011;4950;46.042;14.472;2024-03-02T09:37:31;46.15;;;25.45;;
9821;SDS011;4950;46.042;14.472;2024-03-02T09:39:58;50.63;;;26.65;;
9821;SDS011;4950;46.042;14.472;2024-03-02T09:42:25;44.30;;;25.80;;
9821;SDS011;4950;46.042;14.472;2024-03-02T09:44:52;40.88;;;25.75;;
9821;SDS011;4950;46.042;14.472;2024-03-02T09:47:20;40.08;;;25.58;;
9821;SDS011;4950;46.042;14.472;2024-03-02T09:49:47;42.15;;;25.70;;
9821;SDS011;4950;46.042;14.472;2024-03-02T09:52:14;47.92;;;26.30;;
9821;SDS011;4950;46.042;14.472;2024-03-02T09:54:41;46.53;;;27.70;;
9821;SDS011;4950;46.042;14.472;2024-03-02T09:57:08;46.75;;;25.98;;
9821;SDS011;4950;46.042;14.472;2024-03-02T09:59:35;44.22;;;26.08;;
9821;SDS011;4950;46.042;14.472;2024-03-02T10:02:02;47.05;;;26.52;;
9821;SDS011;4950;46.042;14.472;2024-03-02T10:07:10;40.15;;;24.30;;
9821;SDS011;4950;46.042;14.472;2024-03-02T10:09:38;42.05;;;24.63;;
9821;SDS011;4950;46.042;14.472;2024-03-02T10:12:06;43.00;;;24.67;;
9821;SDS011;4950;46.042;14.472;2024-03-02T10:14:33;42.95;;;22.50;;
9821;SDS011;4950;46.042;14.472;2024-03-02T10:17:02;43.05;;;25.02;;
9821;SDS011;4950;46.042;14.472;2024-03-02T10:19:30;44.22;;;24.83;;
9821;SDS011;4950;46.042;14.472;2024-03-02T10:21:59;39.72;;;23.30;;
9821;SDS011;4950;46.042;14.472;2024-03-02T10:24:28;36.20;;;22.42;;
9821;SDS011;4950;46.042;14.472;2024-03-02T10:27:02;40.03;;;22.38;;
9821;SDS011;4950;46.042;14.472;2024-03-02T10:29:36;38.00;;;21.67;;
9821;SDS011;4950;46.042;14.472;2024-03-02T10:32:04;40.63;;;24.00;;
9821;SDS011;4950;46.042;14.472;2024-03-02T10:34:31;36.83;;;21.90;;
9821;SDS011;4950;46.042;14.472;2024-03-02T10:37:00;32.63;;;20.73;;
9821;SDS011;4950;46.042;14.472;2024-03-02T10:39:28;32.75;;;19.98;;
9821;SDS011;4950;46.042;14.472;2024-03-02T10:41:56;33.33;;;19.13;;
9821;SDS011;4950;46.042;14.472;2024-03-02T10:44:24;30.20;;;18.02;;
9821;SDS011;4950;46.042;14.472;2024-03-02T10:46:52;34.08;;;19.45;;
9821;SDS011;4950;46.042;14.472;2024-03-02T10:49:22;29.33;;;17.10;;
9821;SDS011;4950;46.042;14.472;2024-03-02T10:51:50;22.98;;;12.65;;
9821;SDS011;4950;46.042;14.472;2024-03-02T10:54:18;20.50;;;11.50;;
9821;SDS011;4950;46.042;14.472;2024-03-02T10:56:51;19.77;;;11.27;;
9821;SDS011;4950;46.042;14.472;2024-03-02T10:59:21;24.33;;;13.02;;
9821;SDS011;4950;46.042;14.472;2024-03-02T11:01:53;26.77;;;14.98;;
9821;SDS011;4950;46.042;14.472;2024-03-02T11:04:23;25.75;;;13.38;;
9821;SDS011;4950;46.042;14.472;2024-03-02T11:06:51;21.40;;;12.98;;
9821;SDS011;4950;46.042;14.472;2024-03-02T11:09:22;24.02;;;13.20;;
9821;SDS011;4950;46.042;14.472;2024-03-02T11:11:53;22.08;;;12.63;;
9821;SDS011;4950;46.042;14.472;2024-03-02T11:14:23;26.85;;;13.98;;
9821;SDS011;4950;46.042;14.472;2024-03-02T11:16:51;21.30;;;13.37;;
9821;SDS011;4950;46.042;14.472;2024-03-02T11:19:19;23.98;;;14.18;;
9821;SDS011;4950;46.042;14.472;2024-03-02T11:21:46;19.45;;;12.65;;
9821;SDS011;4950;46.042;14.472;2024-03-02T11:27:13;24.35;;;12.48;;
9821;SDS011;4950;46.042;14.472;2024-03-02T11:29:44;23.92;;;12.00;;
9821;SDS011;4950;46.042;14.472;2024-03-02T11:32:20;17.20;;;10.45;;
9821;SDS011;4950;46.042;14.472;2024-03-02T11:34:48;23.17;;;11.07;;
9821;SDS011;4950;46.042;14.472;2024-03-02T11:37:16;20.45;;;9.63;;
9821;SDS011;4950;46.042;14.472;2024-03-02T11:39:47;14.80;;;9.23;;
9821;SDS011;4950;46.042;14.472;2024-03-02T11:42:16;13.15;;;8.52;;
9821;SDS011;4950;46.042;14.472;2024-03-02T11:44:44;15.20;;;8.40;;
9821;SDS011;4950;46.042;14.472;2024-03-02T11:47:12;9.47;;;3.60;;
9821;SDS011;4950;46.042;14.472;2024-03-02T11:49:41;7.80;;;3.15;;
9821;SDS011;4950;46.042;14.472;2024-03-02T11:52:10;12.32;;;4.35;;
9821;SDS011;4950;46.042;14.472;2024-03-02T11:54:38;5.90;;;3.72;;
9821;SDS011;4950;46.042;14.472;2024-03-02T11:57:07;6.50;;;3.13;;
9821;SDS011;4950;46.042;14.472;2024-03-02T11:59:34;7.43;;;3.40;;
9821;SDS011;4950;46.042;14.472;2024-03-02T12:02:01;7.47;;;3.97;;
9821;SDS011;4950;46.042;14.472;2024-03-02T12:04:28;13.15;;;3.95;;
9821;SDS011;4950;46.042;14.472;2024-03-02T12:06:56;9.80;;;3.70;;
9821;SDS011;4950;46.042;14.472;2024-03-02T12:09:25;8.50;;;4.53;;
9821;SDS011;4950;46.042;14.472;2024-03-02T12:12:02;7.22;;;4.55;;
9821;SDS011;4950;46.042;14.472;2024-03-02T12:14:31;6.40;;;3.75;;
9821;SDS011;4950;46.042;14.472;2024-03-02T12:16:59;11.25;;;4.03;;
9821;SDS011;4950;46.042;14.472;2024-03-02T12:19:26;6.57;;;3.58;;
9821;SDS011;4950;46.042;14.472;2024-03-02T12:24:21;10.27;;;4.78;;
9821;SDS011;4950;46.042;14.472;2024-03-02T12:26:49;9.10;;;4.50;;
9821;SDS011;4950;46.042;14.472;2024-03-02T12:29:16;6.97;;;4.28;;
9821;SDS011;4950;46.042;14.472;2024-03-02T12:31:45;9.85;;;5.03;;
9821;SDS011;4950;46.042;14.472;2024-03-02T12:34:15;11.82;;;4.60;;
9821;SDS011;4950;46.042;14.472;2024-03-02T12:36:43;8.73;;;4.65;;
9821;SDS011;4950;46.042;14.472;2024-03-02T12:39:12;7.03;;;4.20;;
9821;SDS011;4950;46.042;14.472;2024-03-02T12:41:39;8.65;;;4.72;;
9821;SDS011;4950;46.042;14.472;2024-03-02T12:44:07;7.43;;;4.18;;
9821;SDS011;4950;46.042;14.472;2024-03-02T12:46:34;7.03;;;4.32;;
9821;SDS011;4950;46.042;14.472;2024-03-02T12:49:07;6.95;;;4.10;;
9821;SDS011;4950;46.042;14.472;2024-03-02T12:51:37;10.43;;;5.30;;
9821;SDS011;4950;46.042;14.472;2024-03-02T12:54:05;9.60;;;5.90;;
9821;SDS011;4950;46.042;14.472;2024-03-02T12:56:32;10.05;;;5.57;;
9821;SDS011;4950;46.042;14.472;2024-03-02T12:58:59;16.15;;;6.30;;
9821;SDS011;4950;46.042;14.472;2024-03-02T13:01:26;10.57;;;6.35;;
9821;SDS011;4950;46.042;14.472;2024-03-02T13:03:53;13.10;;;7.18;;
9821;SDS011;4950;46.042;14.472;2024-03-02T13:06:22;14.32;;;7.85;;
9821;SDS011;4950;46.042;14.472;2024-03-02T13:08:52;11.23;;;7.35;;
9821;SDS011;4950;46.042;14.472;2024-03-02T13:11:20;11.52;;;6.47;;
9821;SDS011;4950;46.042;14.472;2024-03-02T13:13:47;11.45;;;7.20;;
9821;SDS011;4950;46.042;14.472;2024-03-02T13:16:14;10.25;;;7.07;;
9821;SDS011;4950;46.042;14.472;2024-03-02T13:18:42;12.70;;;7.93;;
9821;SDS011;4950;46.042;14.472;2024-03-02T13:21:10;10.82;;;7.22;;
9821;SDS011;4950;46.042;14.472;2024-03-02T13:23:39;10.85;;;6.70;;
9821;SDS011;4950;46.042;14.472;2024-03-02T13:26:05;13.07;;;5.30;;
9821;SDS011;4950;46.042;14.472;2024-03-02T13:28:32;9.63;;;5.20;;
9821;SDS011;4950;46.042;14.472;2024-03-02T13:30:59;6.43;;;4.35;;
9821;SDS011;4950;46.042;14.472;2024-03-02T13:33:26;6.25;;;3.55;;
9821;SDS011;4950;46.042;14.472;2024-03-02T13:35:52;8.52;;;4.13;;
9821;SDS011;4950;46.042;14.472;2024-03-02T13:38:19;7.93;;;4.00;;
9821;SDS011;4950;46.042;14.472;2024-03-02T13:40:48;5.78;;;3.80;;
9821;SDS011;4950;46.042;14.472;2024-03-02T13:43:17;5.82;;;3.60;;
9821;SDS011;4950;46.042;14.472;2024-03-02T13:45:44;6.15;;;3.70;;
9821;SDS011;4950;46.042;14.472;2024-03-02T13:48:11;5.82;;;2.75;;
9821;SDS011;4950;46.042;14.472;2024-03-02T13:50:39;4.80;;;3.53;;
9821;SDS011;4950;46.042;14.472;2024-03-02T13:53:06;5.10;;;3.15;;
9821;SDS011;4950;46.042;14.472;2024-03-02T13:55:34;6.40;;;2.88;;
9821;SDS011;4950;46.042;14.472;2024-03-02T13:58:02;4.68;;;2.85;;
9821;SDS011;4950;46.042;14.472;2024-03-02T14:00:29;4.80;;;2.72;;
9821;SDS011;4950;46.042;14.472;2024-03-02T14:02:56;4.50;;;3.00;;
9821;SDS011;4950;46.042;14.472;2024-03-02T14:05:22;4.22;;;2.70;;
9821;SDS011;4950;46.042;14.472;2024-03-02T14:07:49;3.00;;;2.00;;
9821;SDS011;4950;46.042;14.472;2024-03-02T14:10:16;3.58;;;1.80;;
9821;SDS011;4950;46.042;14.472;2024-03-02T14:12:47;5.30;;;2.20;;
9821;SDS011;4950;46.042;14.472;2024-03-02T14:15:15;3.35;;;1.90;;
9821;SDS011;4950;46.042;14.472;2024-03-02T14:17:41;3.47;;;2.05;;
9821;SDS011;4950;46.042;14.472;2024-03-02T14:20:08;3.95;;;1.60;;
9821;SDS011;4950;46.042;14.472;2024-03-02T14:22:37;2.20;;;1.40;;
9821;SDS011;4950;46.042;14.472;2024-03-02T14:25:04;3.45;;;1.33;;
9821;SDS011;4950;46.042;14.472;2024-03-02T14:27:31;3.25;;;1.67;;
9821;SDS011;4950;46.042;14.472;2024-03-02T14:29:58;4.97;;;1.17;;
9821;SDS011;4950;46.042;14.472;2024-03-02T14:32:27;1.60;;;1.30;;
9821;SDS011;4950;46.042;14.472;2024-03-02T14:34:53;1.35;;;1.10;;
9821;SDS011;4950;46.042;14.472;2024-03-02T14:37:20;5.25;;;1.40;;
9821;SDS011;4950;46.042;14.472;2024-03-02T14:39:47;1.95;;;1.50;;
9821;SDS011;4950;46.042;14.472;2024-03-02T14:42:14;3.60;;;1.50;;
9821;SDS011;4950;46.042;14.472;2024-03-02T14:44:41;3.85;;;1.52;;
9821;SDS011;4950;46.042;14.472;2024-03-02T14:47:08;2.00;;;1.45;;
9821;SDS011;4950;46.042;14.472;2024-03-02T14:49:36;2.25;;;1.50;;
9821;SDS011;4950;46.042;14.472;2024-03-02T14:52:05;1.20;;;1.10;;
9821;SDS011;4950;46.042;14.472;2024-03-02T14:54:32;2.08;;;1.13;;
9821;SDS011;4950;46.042;14.472;2024-03-02T14:57:00;2.70;;;1.38;;
9821;SDS011;4950;46.042;14.472;2024-03-02T14:59:27;3.00;;;1.30;;
9821;SDS011;4950;46.042;14.472;2024-03-02T15:01:55;1.15;;;1.05;;